Terminal Aerodrome Forecast
Issued by NWS Central Illinois

Home | Current Version | Previous Version | Text Only | Print | Product List | Glossary On
Versions: 1 2 3 4 5 6 7 8 9 10 11 12 13 14 15
000
FTUS43 KILX 020526
TAFSPI
TAF
KSPI 020526Z 0206/0306 06010KT P6SM VCSH SCT020 OVC045
     FM020900 06009KT P6SM BKN020 OVC045
     FM021400 05010KT P6SM BKN025
     FM021900 03010KT P6SM SCT025 BKN050
     FM030000 03008KT P6SM SCT100 BKN250=

USA.gov is the U.S. government's official web portal to all federal, state and local government web resources and services.